createdAt,value
2022-08-19T00:01:38.633Z,8.43
2022-08-19T00:07:40.544Z,8.73
2022-08-19T00:13:42.460Z,8.55
2022-08-19T00:19:44.268Z,7.70
2022-08-19T00:25:48.748Z,8.35
2022-08-19T00:31:54.611Z,8.73
2022-08-19T00:37:57.196Z,7.40
2022-08-19T00:44:05.539Z,8.55
2022-08-19T00:50:09.536Z,7.65
2022-08-19T00:56:12.007Z,8.10
2022-08-19T01:02:13.798Z,7.57
2022-08-19T01:08:18.237Z,8.40
2022-08-19T01:14:20.839Z,7.95
2022-08-19T01:20:24.422Z,8.57
2022-08-19T01:26:27.540Z,8.13
2022-08-19T01:32:33.939Z,7.70
2022-08-19T01:38:44.099Z,8.00
2022-08-19T01:44:46.801Z,7.40
2022-08-19T01:50:49.102Z,7.55
2022-08-19T01:56:54.272Z,8.35
2022-08-19T02:02:56.037Z,7.68
2022-08-19T02:08:58.533Z,7.50
2022-08-19T02:15:00.979Z,7.82
2022-08-19T02:21:02.715Z,7.28
2022-08-19T02:27:05.864Z,7.82
2022-08-19T02:33:07.624Z,7.50
2022-08-19T02:39:10.018Z,7.85
2022-08-19T02:45:12.078Z,6.72
2022-08-19T02:51:21.814Z,6.82
2022-08-19T02:57:23.896Z,7.35
2022-08-19T03:03:25.893Z,6.78
2022-08-19T03:09:27.725Z,7.20
2022-08-19T03:15:29.589Z,8.00
2022-08-19T03:21:33.754Z,6.85
2022-08-19T03:27:35.995Z,7.50
2022-08-19T03:33:39.778Z,6.75
2022-08-19T03:39:43.315Z,7.20
2022-08-19T03:45:45.102Z,7.70
2022-08-19T03:51:49.141Z,7.60
2022-08-19T03:57:50.883Z,7.03
2022-08-19T04:03:53.486Z,7.38
2022-08-19T04:09:56.275Z,7.88
2022-08-19T04:15:58.007Z,6.75
2022-08-19T04:21:59.820Z,6.68
2022-08-19T04:28:01.554Z,7.55
2022-08-19T04:34:08.166Z,7.35
2022-08-19T04:40:28.743Z,7.00
2022-08-19T04:46:40.539Z,11.30
2022-08-19T04:52:54.442Z,12.52
2022-08-19T04:58:57.907Z,12.02
2022-08-19T05:05:01.591Z,12.63
2022-08-19T05:11:14.166Z,11.15
2022-08-19T05:17:37.498Z,10.77
2022-08-19T05:23:38.157Z,11.77
2022-08-19T05:29:40.212Z,10.40
2022-08-19T05:35:42.231Z,10.60
2022-08-19T05:41:45.360Z,11.45
2022-08-19T05:47:47.147Z,11.50
2022-08-19T05:53:48.914Z,11.82
2022-08-19T05:59:57.631Z,11.95
2022-08-19T06:06:01.241Z,11.65
2022-08-19T06:12:04.039Z,11.18
2022-08-19T06:18:05.821Z,12.27
2022-08-19T06:24:10.280Z,11.90
2022-08-19T06:30:13.424Z,10.82
2022-08-19T06:36:35.050Z,11.73
2022-08-19T06:42:36.873Z,11.43
2022-08-19T06:48:45.682Z,11.25
2022-08-19T06:54:56.083Z,10.70
2022-08-19T07:01:04.454Z,11.82
2022-08-19T07:07:21.005Z,11.23
2022-08-19T07:13:23.312Z,11.32
2022-08-19T07:19:30.399Z,10.73
2022-08-19T07:25:33.426Z,11.32
2022-08-19T07:31:38.261Z,11.00
2022-08-19T07:37:45.377Z,11.60
2022-08-19T07:43:48.201Z,11.05
2022-08-19T07:49:49.915Z,11.25
2022-08-19T08:13:09.170Z,11.60
2022-08-19T08:19:25.778Z,11.30
2022-08-19T08:25:27.813Z,11.75
2022-08-19T08:31:35.124Z,10.60
2022-08-19T08:37:37.731Z,12.10
2022-08-19T08:43:44.628Z,10.95
2022-08-19T08:50:15.607Z,12.00
2022-08-19T08:56:18.439Z,12.45
2022-08-19T09:02:20.765Z,12.25
2022-08-19T09:08:51.331Z,12.43
2022-08-19T09:15:05.640Z,12.75
2022-08-19T09:21:08.791Z,12.95
2022-08-19T09:27:18.403Z,13.75
2022-08-19T09:33:21.004Z,13.23
2022-08-19T09:39:23.029Z,12.48
2022-08-19T09:45:24.795Z,13.85
2022-08-19T09:51:29.412Z,13.05
2022-08-19T09:57:31.164Z,12.90
2022-08-19T10:03:34.219Z,11.65
2022-08-19T10:09:36.046Z,11.52
2022-08-19T10:15:47.571Z,12.02
2022-08-19T10:21:49.981Z,12.40
2022-08-19T10:27:51.905Z,10.75
2022-08-19T10:33:59.245Z,11.70
2022-08-19T10:40:07.029Z,11.50
2022-08-19T10:46:13.754Z,11.82
2022-08-19T10:52:39.023Z,11.48
2022-08-19T10:58:42.774Z,10.90
2022-08-19T11:04:44.478Z,10.73
2022-08-19T11:10:50.552Z,10.75
2022-08-19T11:16:56.871Z,10.32
2022-08-19T11:22:58.592Z,10.90
2022-08-19T11:29:01.617Z,10.73
2022-08-19T11:35:03.614Z,9.95
2022-08-19T11:41:10.814Z,9.60
2022-08-19T11:47:12.547Z,13.38
2022-08-19T11:53:14.249Z,23.65
2022-08-19T11:59:16.893Z,30.00
2022-08-19T12:05:18.872Z,27.75
2022-08-19T12:11:21.091Z,27.70
2022-08-19T12:17:23.427Z,26.08
2022-08-19T12:23:25.113Z,24.23
2022-08-19T12:29:30.362Z,24.30
2022-08-19T12:35:32.923Z,22.23
2022-08-19T12:41:34.598Z,22.85
2022-08-19T12:47:38.021Z,19.08
2022-08-19T12:53:43.457Z,17.83
2022-08-19T12:59:45.754Z,17.88
2022-08-19T13:05:47.417Z,16.60
2022-08-19T13:11:49.121Z,14.40
2022-08-19T13:17:52.798Z,13.80
2022-08-19T13:23:55.310Z,12.82
2022-08-19T13:30:15.807Z,11.48
2022-08-19T13:36:17.493Z,10.95
2022-08-19T13:42:20.272Z,10.93
2022-08-19T13:48:22.798Z,10.27
2022-08-19T13:54:24.614Z,10.30
2022-08-19T14:00:29.106Z,9.55
2022-08-19T14:06:30.910Z,8.85
2022-08-19T14:12:33.194Z,8.25
2022-08-19T14:18:35.085Z,7.82
2022-08-19T14:24:40.803Z,8.15
2022-08-19T14:30:49.670Z,7.38
2022-08-19T14:36:56.914Z,7.43
2022-08-19T14:43:04.958Z,8.07
2022-08-19T14:49:09.372Z,7.95
2022-08-19T14:55:11.546Z,7.30
2022-08-19T15:01:14.199Z,7.43
2022-08-19T15:07:15.985Z,6.97
2022-08-19T15:13:17.917Z,6.28
2022-08-19T15:19:19.682Z,10.95
2022-08-19T15:25:21.997Z,19.70
2022-08-19T15:31:28.537Z,22.58
2022-08-19T15:37:30.901Z,22.95
2022-08-19T15:43:33.400Z,25.10
2022-08-19T15:49:35.142Z,26.15
2022-08-19T15:55:43.779Z,26.65
2022-08-19T16:02:03.861Z,29.42
2022-08-19T16:08:06.602Z,29.42
2022-08-19T16:14:09.567Z,29.85
2022-08-19T16:20:11.634Z,32.33
2022-08-19T16:26:15.457Z,36.78
2022-08-19T16:32:17.221Z,34.22
2022-08-19T16:38:18.989Z,33.10
2022-08-19T16:44:21.303Z,29.95
2022-08-19T16:50:39.311Z,28.13
2022-08-19T16:56:46.006Z,26.52
2022-08-19T17:02:47.784Z,29.85
2022-08-19T17:08:51.542Z,27.38
2022-08-19T17:14:53.278Z,27.05
2022-08-19T17:20:56.897Z,30.20
2022-08-19T17:26:58.641Z,27.85
2022-08-19T17:33:00.450Z,29.55
2022-08-19T17:39:04.399Z,27.88
2022-08-19T17:45:06.823Z,27.05
2022-08-19T17:51:33.064Z,26.70
2022-08-19T17:57:34.758Z,27.27
2022-08-19T18:03:36.498Z,25.55
2022-08-19T18:09:42.202Z,24.08
2022-08-19T18:15:44.562Z,22.70
2022-08-19T18:21:47.109Z,23.95
2022-08-19T18:27:49.049Z,21.45
2022-08-19T18:33:52.745Z,22.67
2022-08-19T18:40:13.207Z,22.27
2022-08-19T18:46:34.970Z,24.00
2022-08-19T18:52:40.035Z,24.77
2022-08-19T18:58:42.702Z,25.80
2022-08-19T19:04:45.689Z,24.42
2022-08-19T19:10:47.808Z,24.15
2022-08-19T19:16:52.868Z,22.60
2022-08-19T19:22:56.018Z,23.27
2022-08-19T19:29:00.026Z,23.50
2022-08-19T19:35:01.903Z,23.00
2022-08-19T19:41:04.762Z,22.77
2022-08-19T19:47:07.042Z,22.85
2022-08-19T19:53:08.773Z,22.27
2022-08-19T19:59:10.669Z,21.88
2022-08-19T20:05:13.340Z,20.10
2022-08-19T20:11:32.997Z,20.50
2022-08-19T20:17:42.415Z,20.67
2022-08-19T20:23:44.334Z,22.33
2022-08-19T20:30:13.879Z,21.33
2022-08-19T20:36:21.086Z,19.65
2022-08-19T20:42:23.016Z,20.33
2022-08-19T20:48:24.907Z,20.02
2022-08-19T20:54:27.473Z,19.75
2022-08-19T21:00:30.586Z,19.58
2022-08-19T21:06:32.326Z,18.55
2022-08-19T21:12:34.134Z,20.10
2022-08-19T21:18:36.048Z,17.70
2022-08-19T21:24:38.105Z,17.55
2022-08-19T21:30:41.510Z,18.30
2022-08-19T21:36:43.375Z,17.38
2022-08-19T21:42:46.127Z,17.35
2022-08-19T21:48:48.657Z,16.77
2022-08-19T21:54:50.549Z,17.20
2022-08-19T22:00:52.397Z,16.60
2022-08-19T22:06:54.227Z,16.58
2022-08-19T22:12:56.705Z,16.80
2022-08-19T22:18:59.482Z,16.20
2022-08-19T22:25:30.048Z,15.63
2022-08-19T22:31:33.883Z,16.00
2022-08-19T22:37:35.630Z,15.27
2022-08-19T22:43:37.590Z,16.00
2022-08-19T22:49:39.351Z,14.85
2022-08-19T22:55:41.061Z,14.90
2022-08-19T23:01:42.894Z,14.50
2022-08-19T23:07:44.724Z,15.13
2022-08-19T23:13:54.242Z,13.55
2022-08-19T23:19:55.946Z,14.82
2022-08-19T23:25:57.721Z,14.55
2022-08-19T23:31:59.391Z,13.65
2022-08-19T23:38:03.899Z,13.25
2022-08-19T23:44:06.684Z,15.05
2022-08-19T23:50:16.803Z,13.65
2022-08-19T23:56:18.526Z,14.07
